Aérodrome :
LOGIN :

S'inscrire | Disclaimer

   EN    FR    IT 

 










Légende :    VFR   VFR Marginal   IFR   IFR Intensif   IFR Très Intensif
Visi : 
Plafond : 
>= 8 km
>= 3000ft
5 à 8 km
1000 à 3000 ft
1500m à 5 km
500 à 1000 ft
800 à 1500m
200 à 500 ft
< 800m
< 200 ft
Symboles :   Orages  Brouillard  Fortes neiges  Fortes précipitations  Vent > 20 kt
SIGMETs :   Divers  Orages  Givrage  Turbulence  Onde Orograph.  Cendres Volcan.






- Altitude de l'aérodrome : 33 ft
- Code IATA : MHZ


EGUN - RAF Mildenhall

DERNIER METAR :
  • 151241Z 24018G29KT 9999 SCT027 09/05 A2936 RMK AO2A SLP946 $

METARs EXPIRÉS :
  • 151231Z 23020G29KT 9999 BKN027 09/05 A2936 RMK AO2A BKN V SCT SLP946 $
  • 151156Z 23021G27KT 9999 CLR 08/05 A2934 RMK AO2A PK WND 23029/35 SLP939 7//// T00820051 10082 20042 $
  • 151056Z 23019G24KT 9999 CLR 07/05 A2934 RMK AO2A SLP939 T00720047 $
  • 150956Z 23013G21KT 9999 FEW080 05/04 A2933 RMK AO2A SLPNO T00540039 $

TAF TAF EGUN
Valide du 15 à 12h jusqu'au 16 à 18h UTC


151200Z 1512/1618 22015G25KT 9999 SCT040 QNH2934INS
BECMG 1522/1523 20015G20KT 9000 -RA BKN020 QNH2946INS
BECMG 1602/1603 20010G20KT 9999 NSW SCT015 QNH2946INS
BECMG 1610/1611 19012KT 9999 FEW030 QNH2951INS TX09/1612Z TN05/1519Z



MET'MAP, la Météo Aéronautique d'un coup d'oeil ! - Copyright ORBIFLY Décembre 2007 - Disclaimer

ORBIFLY MET'MAP TEAM :

Programmation & Développement : Alexandra Zaïnal
Sur une idée originale de : Baudouin d'Aumeries
Assistance à la programmation : Marc-Olivier Méhu
Soutien technique & logistique : Manuel Goepfert

Contact : metmap@orbifly.com




SOURCES & CREDITS :

   NOAA